createdAt,value
2023-03-12T00:02:22.333Z,4.07
2023-03-12T00:04:48.763Z,3.55
2023-03-12T00:07:15.383Z,3.58
2023-03-12T00:09:41.751Z,3.47
2023-03-12T00:12:08.391Z,3.10
2023-03-12T00:14:42.303Z,3.92
2023-03-12T00:17:08.661Z,4.10
2023-03-12T00:19:35.104Z,5.55
2023-03-12T00:22:01.458Z,7.30
2023-03-12T00:24:27.938Z,5.75
2023-03-12T00:26:54.305Z,6.70
2023-03-12T00:29:20.637Z,7.00
2023-03-12T00:31:47.611Z,7.72
2023-03-12T00:34:14.168Z,6.72
2023-03-12T00:36:41.311Z,6.85
2023-03-12T00:39:07.785Z,7.43
2023-03-12T00:41:34.214Z,6.07
2023-03-12T00:44:03.105Z,7.50
2023-03-12T00:46:29.561Z,7.57
2023-03-12T00:48:56.058Z,7.90
2023-03-12T00:51:22.675Z,7.57
2023-03-12T00:53:51.230Z,6.97
2023-03-12T00:56:17.672Z,7.00
2023-03-12T00:58:44.184Z,6.97
2023-03-12T01:01:10.860Z,6.90
2023-03-12T01:03:37.665Z,6.63
2023-03-12T01:06:06.752Z,7.38
2023-03-12T01:08:33.160Z,7.45
2023-03-12T01:10:59.961Z,7.63
2023-03-12T01:13:26.316Z,7.82
2023-03-12T01:15:52.696Z,7.78
2023-03-12T01:18:21.542Z,6.38
2023-03-12T01:20:48.019Z,6.10
2023-03-12T01:23:14.870Z,7.07
2023-03-12T01:25:41.639Z,6.45
2023-03-12T01:28:08.045Z,7.20
2023-03-12T01:30:34.757Z,7.38
2023-03-12T01:33:01.184Z,7.00
2023-03-12T01:35:27.702Z,7.00
2023-03-12T01:37:55.886Z,6.80
2023-03-12T01:40:25.509Z,6.88
2023-03-12T01:42:55.773Z,6.72
2023-03-12T01:45:40.978Z,7.40
2023-03-12T01:48:07.359Z,6.78
2023-03-12T01:50:33.732Z,6.63
2023-03-12T01:53:00.190Z,6.72
2023-03-12T01:55:28.827Z,6.15
2023-03-12T01:57:57.669Z,4.28
2023-03-12T02:00:25.541Z,4.47
2023-03-12T02:02:53.720Z,4.25
2023-03-12T02:05:32.082Z,5.10
2023-03-12T02:07:58.654Z,5.15
2023-03-12T02:10:25.801Z,5.15
2023-03-12T02:12:52.292Z,6.47
2023-03-12T02:15:18.983Z,6.47
2023-03-12T02:17:46.360Z,6.57
2023-03-12T02:20:33.322Z,6.72
2023-03-12T02:23:22.690Z,4.47
2023-03-12T02:25:51.087Z,4.82
2023-03-12T02:28:19.636Z,3.67
2023-03-12T02:30:48.389Z,5.07
2023-03-12T02:33:17.922Z,3.63
2023-03-12T02:35:45.578Z,3.95
2023-03-12T02:38:44.574Z,3.78
2023-03-12T02:41:14.072Z,4.38
2023-03-12T02:43:42.489Z,4.03
2023-03-12T02:46:09.271Z,3.92
2023-03-12T02:48:35.752Z,4.60
2023-03-12T02:51:03.334Z,5.30
2023-03-12T02:53:32.131Z,5.18
2023-03-12T02:55:58.780Z,5.35
2023-03-12T02:58:25.339Z,5.93
2023-03-12T03:00:51.858Z,5.45
2023-03-12T03:03:18.278Z,5.03
2023-03-12T03:05:44.629Z,5.25
2023-03-12T03:08:10.994Z,5.10
2023-03-12T03:10:37.374Z,4.82
2023-03-12T03:13:03.771Z,5.75
2023-03-12T03:15:30.250Z,5.60
2023-03-12T03:17:56.646Z,5.05
2023-03-12T03:20:24.665Z,5.55
2023-03-12T03:22:51.034Z,5.18
2023-03-12T03:25:18.211Z,4.85
2023-03-12T03:27:44.582Z,5.22
2023-03-12T03:30:12.001Z,5.18
2023-03-12T03:32:38.478Z,4.88
2023-03-12T03:35:05.031Z,4.82
2023-03-12T03:37:31.383Z,4.85
2023-03-12T03:39:57.718Z,4.47
2023-03-12T03:42:26.527Z,4.60
2023-03-12T03:44:52.884Z,5.05
2023-03-12T03:47:19.776Z,5.55
2023-03-12T03:49:46.196Z,5.25
2023-03-12T03:52:12.584Z,5.45
2023-03-12T03:54:38.940Z,6.38
2023-03-12T03:57:05.365Z,5.03
2023-03-12T03:59:31.770Z,5.60
2023-03-12T04:01:58.186Z,5.40
2023-03-12T04:04:24.581Z,5.50
2023-03-12T04:06:50.975Z,4.65
2023-03-12T04:09:17.351Z,5.35
2023-03-12T04:11:43.702Z,5.20
2023-03-12T04:14:10.075Z,5.18
2023-03-12T04:16:36.426Z,5.45
2023-03-12T04:19:02.815Z,4.78
2023-03-12T04:21:29.164Z,4.22
2023-03-12T04:23:55.518Z,4.40
2023-03-12T04:26:24.509Z,4.03
2023-03-12T04:28:50.901Z,4.40
2023-03-12T04:31:17.343Z,4.57
2023-03-12T04:33:43.769Z,4.28
2023-03-12T04:36:11.657Z,4.60
2023-03-12T04:38:38.048Z,4.43
2023-03-12T04:41:06.020Z,4.60
2023-03-12T04:43:32.694Z,4.57
2023-03-12T04:45:59.548Z,5.07
2023-03-12T04:48:28.347Z,4.95
2023-03-12T04:50:55.059Z,4.90
2023-03-12T04:53:24.798Z,4.97
2023-03-12T04:55:51.493Z,4.72
2023-03-12T04:58:18.361Z,4.85
2023-03-12T05:00:44.792Z,5.50
2023-03-12T05:03:11.340Z,5.07
2023-03-12T05:05:37.914Z,5.32
2023-03-12T05:08:04.745Z,5.07
2023-03-12T05:10:31.200Z,5.40
2023-03-12T05:12:57.548Z,4.70
2023-03-12T05:15:24.193Z,6.40
2023-03-12T05:17:50.571Z,4.93
2023-03-12T05:20:17.813Z,5.10
2023-03-12T05:22:44.217Z,4.90
2023-03-12T05:25:11.181Z,4.57
2023-03-12T05:27:37.714Z,5.30
2023-03-12T05:30:05.134Z,5.07
2023-03-12T05:32:31.617Z,5.20
2023-03-12T05:34:58.034Z,5.20
2023-03-12T05:37:24.422Z,4.63
2023-03-12T05:39:50.802Z,4.85
2023-03-12T05:42:17.255Z,5.45
2023-03-12T05:44:43.578Z,4.75
2023-03-12T05:47:10.604Z,4.97
2023-03-12T05:49:39.111Z,6.05
2023-03-12T05:52:05.868Z,5.55
2023-03-12T05:54:32.286Z,5.05
2023-03-12T05:56:59.149Z,4.97
2023-03-12T05:59:25.631Z,4.65
2023-03-12T06:01:52.061Z,5.30
2023-03-12T06:04:18.443Z,4.70
2023-03-12T06:06:44.799Z,4.85
2023-03-12T06:09:11.219Z,4.53
2023-03-12T06:11:37.651Z,4.85
2023-03-12T06:14:04.429Z,4.88
2023-03-12T06:16:30.817Z,4.97
2023-03-12T06:18:58.023Z,4.78
2023-03-12T06:21:26.126Z,4.90
2023-03-12T06:23:53.148Z,5.05
2023-03-12T06:26:20.858Z,4.72
2023-03-12T06:28:47.709Z,4.72
2023-03-12T06:31:14.668Z,5.15
2023-03-12T06:33:41.114Z,5.60
2023-03-12T06:36:10.820Z,5.30
2023-03-12T06:38:41.223Z,6.05
2023-03-12T06:41:15.175Z,5.80
2023-03-12T06:43:41.783Z,5.82
2023-03-12T06:46:11.786Z,5.05
2023-03-12T06:48:41.173Z,4.90
2023-03-12T06:51:08.689Z,4.88
2023-03-12T06:53:35.051Z,4.90
2023-03-12T06:56:01.843Z,4.75
2023-03-12T06:58:28.235Z,4.75
2023-03-12T07:00:54.746Z,4.20
2023-03-12T07:03:21.129Z,4.47
2023-03-12T07:05:48.614Z,5.47
2023-03-12T07:08:15.258Z,5.47
2023-03-12T07:10:41.726Z,6.30
2023-03-12T07:13:08.513Z,5.63
2023-03-12T07:15:35.305Z,5.35
2023-03-12T07:18:04.103Z,5.65
2023-03-12T07:20:30.489Z,5.15
2023-03-12T07:22:59.282Z,4.90
2023-03-12T07:25:28.045Z,4.68
2023-03-12T07:27:54.669Z,4.93
2023-03-12T07:30:21.166Z,4.60
2023-03-12T07:32:47.628Z,4.95
2023-03-12T07:35:14.069Z,4.60
2023-03-12T07:37:40.413Z,5.00
2023-03-12T07:40:10.548Z,4.38
2023-03-12T07:42:37.172Z,4.57
2023-03-12T07:45:04.254Z,4.43
2023-03-12T07:47:31.117Z,5.15
2023-03-12T07:49:57.641Z,4.93
2023-03-12T07:52:24.163Z,5.30
2023-03-12T07:54:52.730Z,5.93
2023-03-12T07:57:19.284Z,6.03
2023-03-12T07:59:47.077Z,6.05
2023-03-12T08:02:16.640Z,6.13
2023-03-12T08:04:43.153Z,5.38
2023-03-12T08:07:09.772Z,6.20
2023-03-12T08:09:38.598Z,6.60
2023-03-12T08:12:05.801Z,6.28
2023-03-12T08:14:32.285Z,6.03
2023-03-12T08:17:01.703Z,6.78
2023-03-12T08:19:30.992Z,6.40
2023-03-12T08:21:58.039Z,6.53
2023-03-12T08:24:24.431Z,5.78
2023-03-12T08:26:53.199Z,6.20
2023-03-12T08:29:20.270Z,6.35
2023-03-12T08:32:03.482Z,6.30
2023-03-12T08:34:30.931Z,5.95
2023-03-12T08:36:57.380Z,5.72
2023-03-12T08:39:23.772Z,14.30
2023-03-12T08:41:51.683Z,9.02
2023-03-12T08:44:18.115Z,8.40
2023-03-12T08:46:44.491Z,6.03
2023-03-12T08:49:10.876Z,5.15
2023-03-12T08:51:37.256Z,5.13
2023-03-12T08:54:05.298Z,5.55
2023-03-12T08:56:31.934Z,4.78
2023-03-12T08:58:58.640Z,4.60
2023-03-12T09:01:25.122Z,4.93
2023-03-12T09:03:54.174Z,4.00
2023-03-12T09:06:23.976Z,4.60
2023-03-12T09:08:51.660Z,4.35
2023-03-12T09:11:18.315Z,4.18
2023-03-12T09:14:14.966Z,4.50
2023-03-12T09:16:31.380Z,4.47
2023-03-12T09:18:57.916Z,5.25
2023-03-12T09:21:24.332Z,5.00
2023-03-12T09:23:50.905Z,5.78
2023-03-12T09:26:17.313Z,6.05
2023-03-12T09:28:44.890Z,5.90
2023-03-12T09:31:12.155Z,6.90
2023-03-12T09:33:38.869Z,7.05
2023-03-12T09:36:05.385Z,6.57
2023-03-12T09:38:32.258Z,6.13
2023-03-12T09:40:58.821Z,5.30
2023-03-12T09:43:25.137Z,5.20
2023-03-12T09:45:51.832Z,4.47
2023-03-12T09:48:34.910Z,4.95
2023-03-12T09:51:24.558Z,4.10
2023-03-12T09:53:52.567Z,4.05
2023-03-12T09:56:20.772Z,4.80
2023-03-12T09:58:48.350Z,5.13
2023-03-12T10:01:17.845Z,6.00
2023-03-12T10:03:50.259Z,5.53
2023-03-12T10:06:20.365Z,5.60
2023-03-12T10:09:05.966Z,5.93
2023-03-12T10:11:33.007Z,5.75
2023-03-12T10:14:24.216Z,5.40
2023-03-12T10:17:10.116Z,5.68
2023-03-12T10:19:39.552Z,5.43
2023-03-12T10:22:12.070Z,6.20
2023-03-12T10:24:57.282Z,5.68
2023-03-12T10:27:25.630Z,5.95
2023-03-12T10:29:53.401Z,5.15
2023-03-12T10:32:22.151Z,6.10
2023-03-12T10:34:54.972Z,5.55
2023-03-12T10:37:24.897Z,8.10
2023-03-12T10:39:52.845Z,6.60
2023-03-12T10:42:20.835Z,6.55
2023-03-12T10:44:49.071Z,8.45
2023-03-12T10:47:35.492Z,8.80
2023-03-12T10:50:14.181Z,9.18
2023-03-12T10:52:40.996Z,7.00
2023-03-12T10:55:12.083Z,7.43
2023-03-12T10:57:43.712Z,7.10
2023-03-12T11:00:16.940Z,7.25
2023-03-12T11:02:44.276Z,8.02
2023-03-12T11:05:19.909Z,7.30
2023-03-12T11:07:46.329Z,7.32
2023-03-12T11:10:15.904Z,7.55
2023-03-12T11:12:51.362Z,8.63
2023-03-12T11:15:29.149Z,8.40
2023-03-12T11:18:17.998Z,8.85
2023-03-12T11:20:44.460Z,8.75
2023-03-12T11:23:19.961Z,9.23
2023-03-12T11:25:54.063Z,8.93
2023-03-12T11:28:23.375Z,11.63
2023-03-12T11:30:51.729Z,11.73
2023-03-12T11:33:18.604Z,8.95
2023-03-12T11:36:04.477Z,8.57
2023-03-12T11:38:33.505Z,8.90
2023-03-12T11:41:06.185Z,7.78
2023-03-12T11:43:43.291Z,6.90
2023-03-12T11:46:22.582Z,6.10
2023-03-12T11:49:06.777Z,6.63
2023-03-12T11:51:46.395Z,6.45
2023-03-12T11:54:31.098Z,6.60
2023-03-12T11:57:27.185Z,5.78
2023-03-12T11:59:56.507Z,6.22
2023-03-12T12:02:38.132Z,5.85
2023-03-12T12:05:07.520Z,6.07
2023-03-12T12:07:43.255Z,5.75
2023-03-12T12:10:28.607Z,6.13
2023-03-12T12:13:13.738Z,6.05
2023-03-12T12:15:40.206Z,6.32
2023-03-12T12:18:25.354Z,6.80
2023-03-12T12:20:57.158Z,6.15
2023-03-12T12:23:33.138Z,5.05
2023-03-12T12:26:02.658Z,3.15
2023-03-12T12:28:44.471Z,3.35
2023-03-12T12:31:20.123Z,2.35
2023-03-12T12:34:07.640Z,2.15
2023-03-12T12:36:35.226Z,1.70
2023-03-12T12:39:07.886Z,2.17
2023-03-12T12:41:36.213Z,1.85
2023-03-12T12:44:05.250Z,2.00
2023-03-12T12:46:36.488Z,2.22
2023-03-12T12:49:21.085Z,1.92
2023-03-12T12:51:49.439Z,1.80
2023-03-12T12:54:18.869Z,1.95
2023-03-12T12:57:04.304Z,2.50
2023-03-12T12:59:37.077Z,2.60
2023-03-12T13:02:04.695Z,2.13
2023-03-12T13:04:35.962Z,1.50
2023-03-12T13:07:08.428Z,1.88
2023-03-12T13:09:39.679Z,1.80
2023-03-12T13:12:06.984Z,2.17
2023-03-12T13:14:39.122Z,2.00
2023-03-12T13:17:06.950Z,2.05
2023-03-12T13:19:38.765Z,2.45
2023-03-12T13:22:14.369Z,2.00
2023-03-12T13:24:46.342Z,2.10
2023-03-12T13:27:21.304Z,1.80
2023-03-12T13:29:56.229Z,1.98
2023-03-12T13:32:34.969Z,1.77
2023-03-12T13:35:27.535Z,2.05
2023-03-12T13:37:53.932Z,2.40
2023-03-12T13:40:29.499Z,2.08
2023-03-12T13:43:02.028Z,1.92
2023-03-12T13:45:31.583Z,1.70
2023-03-12T13:47:59.849Z,1.73
2023-03-12T13:50:26.978Z,1.70
2023-03-12T13:53:06.834Z,1.95
2023-03-12T13:55:34.450Z,1.80
2023-03-12T13:58:06.720Z,1.80
2023-03-12T14:00:39.341Z,2.00
2023-03-12T14:03:08.840Z,1.77
2023-03-12T14:05:47.379Z,2.22
2023-03-12T14:08:32.901Z,2.00
2023-03-12T14:11:18.215Z,13.38
2023-03-12T14:13:52.771Z,3.10
2023-03-12T14:16:19.167Z,1.90
2023-03-12T14:18:49.248Z,1.90
2023-03-12T14:21:16.736Z,1.80
2023-03-12T14:23:49.323Z,2.05
2023-03-12T14:26:20.426Z,1.70
2023-03-12T14:28:48.597Z,1.88
2023-03-12T14:31:17.106Z,1.80
2023-03-12T14:34:02.242Z,2.10
2023-03-12T14:36:49.237Z,3.22
2023-03-12T14:39:36.711Z,2.92
2023-03-12T14:42:05.374Z,2.90
2023-03-12T14:44:32.790Z,2.20
2023-03-12T14:47:03.980Z,2.15
2023-03-12T14:49:31.412Z,2.20
2023-03-12T14:51:57.867Z,2.53
2023-03-12T14:54:28.680Z,2.90
2023-03-12T14:56:55.190Z,3.30
2023-03-12T14:59:21.510Z,3.70
2023-03-12T15:01:48.119Z,3.80
2023-03-12T15:04:16.843Z,3.20
2023-03-12T15:06:45.159Z,3.15
2023-03-12T15:09:16.644Z,4.22
2023-03-12T15:11:43.143Z,5.32
2023-03-12T15:14:14.328Z,3.90
2023-03-12T15:16:42.009Z,3.20
2023-03-12T15:19:12.011Z,3.65
2023-03-12T15:21:38.534Z,3.60
2023-03-12T15:24:06.075Z,4.35
2023-03-12T15:26:34.813Z,7.32
2023-03-12T15:29:15.246Z,5.60
2023-03-12T15:31:43.058Z,5.68
2023-03-12T15:34:11.102Z,4.22
2023-03-12T15:36:45.207Z,3.10
2023-03-12T15:39:26.250Z,3.42
2023-03-12T15:41:53.969Z,4.22
2023-03-12T15:44:21.835Z,4.80
2023-03-12T15:46:50.381Z,5.82
2023-03-12T15:49:25.477Z,5.70
2023-03-12T15:52:22.058Z,5.05
2023-03-12T15:55:09.148Z,5.88
2023-03-12T15:57:45.097Z,5.60
2023-03-12T16:00:14.553Z,4.50
2023-03-12T16:02:53.364Z,3.95
2023-03-12T16:05:20.835Z,4.35
2023-03-12T16:07:47.494Z,3.70
2023-03-12T16:10:15.604Z,3.60
2023-03-12T16:12:43.458Z,4.18
2023-03-12T16:15:15.008Z,3.90
2023-03-12T16:17:41.616Z,4.07
2023-03-12T16:20:11.648Z,4.45
2023-03-12T16:22:38.041Z,5.00
2023-03-12T16:25:04.620Z,4.70
2023-03-12T16:27:33.053Z,4.90
2023-03-12T16:29:59.740Z,5.65
2023-03-12T16:32:26.208Z,5.30
2023-03-12T16:34:52.825Z,5.13
2023-03-12T16:37:19.171Z,5.30
2023-03-12T16:39:46.498Z,5.70
2023-03-12T16:42:16.004Z,5.15
2023-03-12T16:44:45.991Z,5.70
2023-03-12T16:47:13.621Z,6.03
2023-03-12T16:49:40.068Z,6.70
2023-03-12T16:52:20.196Z,6.47
2023-03-12T16:54:48.367Z,6.70
2023-03-12T16:57:20.616Z,6.85
2023-03-12T16:59:47.056Z,5.70
2023-03-12T17:02:15.275Z,5.72
2023-03-12T17:04:41.757Z,5.88
2023-03-12T17:07:08.235Z,6.30
2023-03-12T17:09:34.823Z,5.80
2023-03-12T17:12:01.666Z,6.10
2023-03-12T17:14:29.364Z,5.57
2023-03-12T17:16:55.858Z,5.47
2023-03-12T17:19:22.440Z,6.65
2023-03-12T17:21:49.488Z,8.93
2023-03-12T17:24:15.967Z,11.20
2023-03-12T17:26:43.320Z,11.55
2023-03-12T17:29:09.793Z,11.80
2023-03-12T17:31:37.602Z,14.70
2023-03-12T17:34:04.517Z,26.80
2023-03-12T17:36:30.946Z,13.82
2023-03-12T17:38:57.377Z,10.32
2023-03-12T17:41:26.976Z,10.07
2023-03-12T17:43:54.705Z,9.77
2023-03-12T17:46:21.155Z,9.05
2023-03-12T17:48:49.992Z,8.63
2023-03-12T17:51:16.846Z,7.22
2023-03-12T17:53:43.362Z,6.57
2023-03-12T17:56:12.421Z,5.95
2023-03-12T17:58:39.043Z,5.85
2023-03-12T18:01:05.504Z,5.97
2023-03-12T18:03:31.937Z,5.47
2023-03-12T18:05:58.938Z,5.18
2023-03-12T18:08:25.284Z,5.45
2023-03-12T18:10:51.721Z,5.20
2023-03-12T18:13:18.084Z,4.97
2023-03-12T18:15:50.173Z,5.25
2023-03-12T18:18:16.558Z,4.68
2023-03-12T18:20:43.947Z,4.68
2023-03-12T18:23:10.342Z,5.32
2023-03-12T18:25:37.535Z,5.10
2023-03-12T18:28:03.932Z,5.25
2023-03-12T18:30:30.358Z,4.57
2023-03-12T18:32:56.791Z,5.63
2023-03-12T18:35:28.637Z,8.88
2023-03-12T18:37:58.423Z,19.13
2023-03-12T18:40:25.428Z,13.90
2023-03-12T18:42:52.014Z,16.60
2023-03-12T18:45:18.530Z,14.27
2023-03-12T18:47:45.320Z,17.15
2023-03-12T18:50:12.813Z,15.95
2023-03-12T18:52:39.203Z,13.70
2023-03-12T18:55:05.701Z,10.80
2023-03-12T18:57:32.093Z,8.80
2023-03-12T18:59:59.353Z,7.47
2023-03-12T19:02:25.768Z,9.32
2023-03-12T19:04:55.520Z,7.32
2023-03-12T19:07:22.723Z,7.95
2023-03-12T19:09:49.237Z,7.00
2023-03-12T19:12:15.688Z,7.72
2023-03-12T19:14:44.561Z,7.50
2023-03-12T19:17:11.012Z,8.20
2023-03-12T19:19:37.568Z,8.25
2023-03-12T19:22:04.751Z,8.10
2023-03-12T19:24:31.268Z,10.57
2023-03-12T19:26:57.747Z,11.63
2023-03-12T19:29:26.729Z,12.38
2023-03-12T19:31:53.267Z,13.80
2023-03-12T19:34:20.085Z,15.68
2023-03-12T19:36:46.487Z,16.23
2023-03-12T19:39:21.052Z,18.17
2023-03-12T19:41:48.299Z,17.52
2023-03-12T19:44:14.771Z,14.73
2023-03-12T19:46:43.152Z,12.20
2023-03-12T19:49:09.659Z,12.73
2023-03-12T19:51:36.362Z,13.73
2023-03-12T19:54:04.952Z,10.68
2023-03-12T19:56:31.434Z,10.85
2023-03-12T19:58:57.836Z,13.00
2023-03-12T20:01:24.862Z,13.27
2023-03-12T20:03:51.267Z,13.43
2023-03-12T20:06:17.681Z,16.13
2023-03-12T20:08:45.607Z,16.05
2023-03-12T20:11:14.380Z,16.92
2023-03-12T20:13:40.855Z,18.40
2023-03-12T20:16:07.936Z,20.70
2023-03-12T20:18:36.826Z,22.17
2023-03-12T20:21:03.346Z,17.60
2023-03-12T20:23:32.843Z,18.15
2023-03-12T20:25:59.424Z,17.48
2023-03-12T20:28:28.243Z,15.45
2023-03-12T20:30:54.706Z,13.90
2023-03-12T20:33:21.107Z,13.68
2023-03-12T20:35:50.588Z,18.58
2023-03-12T20:38:17.096Z,17.38
2023-03-12T20:40:48.179Z,17.58
2023-03-12T20:43:14.617Z,17.98
2023-03-12T20:45:41.151Z,19.05
2023-03-12T20:48:07.655Z,17.08
2023-03-12T20:50:37.351Z,19.10
2023-03-12T20:53:06.200Z,17.48
2023-03-12T20:55:32.664Z,18.55
2023-03-12T20:57:59.295Z,20.48
2023-03-12T21:00:28.176Z,18.42
2023-03-12T21:02:54.646Z,17.75
2023-03-12T21:05:25.065Z,17.83
2023-03-12T21:07:52.341Z,17.65
2023-03-12T21:10:21.184Z,18.30
2023-03-12T21:12:47.837Z,18.15
2023-03-12T21:15:14.312Z,17.42
2023-03-12T21:17:40.977Z,17.30
2023-03-12T21:20:09.662Z,17.10
2023-03-12T21:22:36.875Z,14.90
2023-03-12T21:25:06.025Z,14.95
2023-03-12T21:27:44.485Z,14.75
2023-03-12T21:30:18.853Z,15.45
2023-03-12T21:32:45.357Z,16.35
2023-03-12T21:35:11.922Z,15.48
2023-03-12T21:37:38.410Z,16.45
2023-03-12T21:40:05.119Z,16.85
2023-03-12T21:42:34.063Z,17.52
2023-03-12T21:45:00.481Z,17.38
2023-03-12T21:47:26.897Z,17.55
2023-03-12T21:49:56.697Z,18.65
2023-03-12T21:52:23.268Z,18.45
2023-03-12T21:54:49.829Z,17.58
2023-03-12T21:57:18.596Z,17.15
2023-03-12T21:59:47.365Z,17.60
2023-03-12T22:02:14.325Z,17.42
2023-03-12T22:04:40.870Z,17.33
2023-03-12T22:07:07.392Z,18.70
2023-03-12T22:09:33.870Z,19.20
2023-03-12T22:12:03.342Z,19.55
2023-03-12T22:14:29.946Z,19.10
2023-03-12T22:16:56.671Z,19.63
2023-03-12T22:19:24.027Z,18.67
2023-03-12T22:21:50.378Z,17.08
2023-03-12T22:24:16.775Z,14.85
2023-03-12T22:26:43.364Z,14.18
2023-03-12T22:29:09.866Z,14.07
2023-03-12T22:31:36.460Z,13.18
2023-03-12T22:34:02.951Z,13.48
2023-03-12T22:36:29.340Z,14.73
2023-03-12T22:39:00.805Z,12.90
2023-03-12T22:41:29.920Z,13.60
2023-03-12T22:43:57.160Z,13.27
2023-03-12T22:46:24.549Z,13.85
2023-03-12T22:48:57.386Z,12.80
2023-03-12T22:51:26.343Z,16.17
2023-03-12T22:53:55.198Z,16.42
2023-03-12T22:56:22.044Z,16.52
2023-03-12T22:58:48.887Z,17.65
2023-03-12T23:01:21.284Z,19.02
2023-03-12T23:03:51.071Z,18.30
2023-03-12T23:06:20.048Z,19.80
2023-03-12T23:08:47.921Z,23.15
2023-03-12T23:11:15.231Z,20.50
2023-03-12T23:13:42.520Z,27.17
2023-03-12T23:16:10.323Z,25.25
2023-03-12T23:18:36.757Z,16.55
2023-03-12T23:21:07.673Z,14.00
2023-03-12T23:23:34.750Z,11.60
2023-03-12T23:26:02.916Z,14.90
2023-03-12T23:28:29.795Z,13.40
2023-03-12T23:30:59.555Z,17.52
2023-03-12T23:33:26.694Z,13.77
2023-03-12T23:35:57.765Z,9.77
2023-03-12T23:38:24.453Z,9.63
2023-03-12T23:40:50.995Z,9.70
2023-03-12T23:43:17.470Z,10.85
2023-03-12T23:45:43.983Z,10.77
2023-03-12T23:48:10.429Z,9.27
2023-03-12T23:50:36.875Z,9.48
2023-03-12T23:53:03.563Z,10.07
2023-03-12T23:55:29.952Z,10.55
2023-03-12T23:57:56.417Z,12.32
